createdAt,value
2023-04-16T00:02:10.060Z,86.68
2023-04-16T00:04:36.766Z,86.55
2023-04-16T00:07:03.451Z,86.39
2023-04-16T00:09:30.353Z,86.55
2023-04-16T00:11:56.920Z,86.67
2023-04-16T00:14:23.625Z,86.23
2023-04-16T00:16:50.382Z,86.41
2023-04-16T00:19:17.004Z,85.93
2023-04-16T00:21:44.235Z,85.70
2023-04-16T00:24:13.997Z,86.27
2023-04-16T00:26:42.853Z,86.03
2023-04-16T00:29:09.664Z,86.36
2023-04-16T00:31:37.000Z,86.35
2023-04-16T00:34:04.661Z,85.80
2023-04-16T00:36:31.359Z,86.39
2023-04-16T00:38:57.989Z,86.55
2023-04-16T00:41:24.571Z,85.94
2023-04-16T00:43:51.785Z,86.57
2023-04-16T00:46:20.248Z,85.95
2023-04-16T00:48:47.420Z,85.89
2023-04-16T00:51:14.158Z,86.68
2023-04-16T00:53:42.904Z,86.35
2023-04-16T00:56:12.909Z,86.29
2023-04-16T00:58:43.308Z,86.65
2023-04-16T01:01:10.021Z,86.20
2023-04-16T01:03:44.199Z,86.27
2023-04-16T01:06:14.360Z,86.34
2023-04-16T01:08:42.755Z,86.34
2023-04-16T01:11:11.845Z,86.29
2023-04-16T01:13:43.079Z,86.27
2023-04-16T01:16:12.990Z,86.32
2023-04-16T01:18:40.066Z,86.62
2023-04-16T01:21:06.837Z,86.31
2023-04-16T01:23:33.540Z,86.44
2023-04-16T01:26:00.285Z,86.26
2023-04-16T01:28:27.014Z,85.86
2023-04-16T01:30:53.692Z,86.46
2023-04-16T01:33:21.592Z,86.32
2023-04-16T01:35:48.739Z,86.49
2023-04-16T01:38:15.413Z,86.55
2023-04-16T01:40:46.195Z,86.39
2023-04-16T01:43:15.722Z,86.83
2023-04-16T01:45:43.849Z,86.80
2023-04-16T01:48:13.142Z,86.24
2023-04-16T01:50:39.831Z,86.53
2023-04-16T01:53:06.430Z,87.10
2023-04-16T01:55:34.007Z,86.90
2023-04-16T01:58:01.637Z,86.71
2023-04-16T02:00:28.329Z,86.50
2023-04-16T02:02:55.111Z,86.37
2023-04-16T02:05:21.907Z,86.58
2023-04-16T02:07:48.609Z,86.38
2023-04-16T02:10:15.399Z,86.41
2023-04-16T02:12:43.672Z,86.50
2023-04-16T02:15:11.513Z,86.71
2023-04-16T02:17:38.172Z,86.82
2023-04-16T02:20:07.988Z,86.77
2023-04-16T02:22:34.588Z,87.01
2023-04-16T02:25:01.249Z,86.86
2023-04-16T02:27:28.008Z,86.92
2023-04-16T02:29:54.551Z,87.36
2023-04-16T02:32:22.371Z,87.09
2023-04-16T02:34:49.048Z,87.19
2023-04-16T02:37:15.709Z,87.17
2023-04-16T02:39:44.196Z,86.79
2023-04-16T02:42:13.405Z,87.17
2023-04-16T02:44:42.910Z,86.85
2023-04-16T02:47:09.635Z,86.86
2023-04-16T02:49:36.530Z,87.32
2023-04-16T02:52:03.179Z,87.03
2023-04-16T02:54:29.776Z,86.92
2023-04-16T02:56:57.071Z,87.20
2023-04-16T02:59:23.680Z,86.90
2023-04-16T03:01:50.623Z,87.15
2023-04-16T03:04:17.405Z,87.19
2023-04-16T03:06:44.091Z,87.23
2023-04-16T03:09:12.960Z,87.17
2023-04-16T03:11:39.520Z,87.43
2023-04-16T03:14:06.184Z,87.33
2023-04-16T03:16:32.786Z,86.99
2023-04-16T03:18:59.428Z,87.23
2023-04-16T03:21:27.693Z,87.54
2023-04-16T03:23:56.218Z,87.79
2023-04-16T03:26:22.732Z,87.36
2023-04-16T03:28:49.368Z,87.16
2023-04-16T03:31:16.486Z,87.38
2023-04-16T03:33:43.569Z,87.19
2023-04-16T03:36:10.200Z,87.78
2023-04-16T03:38:37.007Z,87.36
2023-04-16T03:41:03.826Z,87.30
2023-04-16T03:43:30.682Z,87.46
2023-04-16T03:45:57.321Z,87.66
2023-04-16T03:48:24.963Z,88.12
2023-04-16T03:50:51.676Z,87.66
2023-04-16T03:53:18.363Z,87.66
2023-04-16T03:55:45.041Z,88.09
2023-04-16T03:58:14.643Z,88.08
2023-04-16T04:00:44.525Z,87.87
2023-04-16T04:03:17.281Z,88.08
2023-04-16T04:05:45.402Z,88.40
2023-04-16T04:08:15.021Z,87.99
2023-04-16T04:10:43.951Z,87.94
2023-04-16T04:13:13.140Z,87.79
2023-04-16T04:15:43.026Z,87.93
2023-04-16T04:18:09.763Z,87.67
2023-04-16T04:20:42.455Z,88.35
2023-04-16T04:23:09.081Z,87.92
2023-04-16T04:25:36.204Z,87.86
2023-04-16T04:28:02.798Z,88.19
2023-04-16T04:30:29.417Z,87.95
2023-04-16T04:32:56.150Z,87.75
2023-04-16T04:35:22.886Z,88.33
2023-04-16T04:37:49.568Z,88.15
2023-04-16T04:40:16.267Z,88.03
2023-04-16T04:42:43.945Z,88.11
2023-04-16T04:45:14.141Z,88.27
2023-04-16T04:47:43.285Z,88.04
2023-04-16T04:50:10.440Z,88.06
2023-04-16T04:52:37.311Z,88.37
2023-04-16T04:55:04.176Z,88.51
2023-04-16T04:57:30.860Z,88.06
2023-04-16T04:59:57.535Z,87.62
2023-04-16T05:02:24.299Z,87.85
2023-04-16T05:04:51.186Z,88.26
2023-04-16T05:07:17.828Z,88.04
2023-04-16T05:09:44.437Z,87.64
2023-04-16T05:12:13.407Z,87.84
2023-04-16T05:14:39.982Z,87.75
2023-04-16T05:17:08.132Z,87.84
2023-04-16T05:19:34.934Z,87.52
2023-04-16T05:22:02.733Z,87.54
2023-04-16T05:24:29.541Z,86.93
2023-04-16T05:26:57.356Z,87.03
2023-04-16T05:29:24.068Z,87.13
2023-04-16T05:31:50.702Z,87.18
2023-04-16T05:34:17.274Z,87.06
2023-04-16T05:36:44.978Z,86.48
2023-04-16T05:39:14.518Z,86.54
2023-04-16T05:41:42.909Z,86.50
2023-04-16T05:44:09.573Z,86.21
2023-04-16T05:46:36.364Z,86.46
2023-04-16T05:49:03.964Z,86.23
2023-04-16T05:51:32.137Z,86.82
2023-04-16T05:53:58.883Z,86.15
2023-04-16T05:56:25.656Z,86.39
2023-04-16T05:58:52.325Z,86.13
2023-04-16T06:01:18.914Z,85.70
2023-04-16T06:03:45.822Z,86.29
2023-04-16T06:06:15.576Z,86.08
2023-04-16T06:08:43.841Z,84.56
2023-04-16T06:11:11.912Z,84.32
2023-04-16T06:13:38.888Z,83.94
2023-04-16T06:16:06.266Z,84.80
2023-04-16T06:18:32.956Z,84.92
2023-04-16T06:20:59.988Z,84.98
2023-04-16T06:23:29.674Z,84.70
2023-04-16T06:25:56.844Z,84.62
2023-04-16T06:28:23.670Z,83.53
2023-04-16T06:30:50.361Z,84.34
2023-04-16T06:33:17.030Z,83.45
2023-04-16T06:35:44.180Z,84.13
2023-04-16T06:38:12.016Z,82.99
2023-04-16T06:40:38.813Z,83.23
2023-04-16T06:43:05.710Z,83.11
2023-04-16T06:45:32.401Z,82.84
2023-04-16T06:47:59.217Z,83.29
2023-04-16T06:50:28.519Z,82.92
2023-04-16T06:52:56.186Z,82.60
2023-04-16T06:55:22.889Z,82.76
2023-04-16T06:57:49.549Z,82.13
2023-04-16T07:00:16.380Z,81.66
2023-04-16T07:02:46.237Z,81.45
2023-04-16T07:05:13.821Z,81.23
2023-04-16T07:07:43.110Z,80.91
2023-04-16T07:10:10.387Z,81.11
2023-04-16T07:12:39.118Z,81.35
2023-04-16T07:15:07.995Z,80.93
2023-04-16T07:17:36.631Z,81.51
2023-04-16T07:20:04.209Z,80.92
2023-04-16T07:22:31.389Z,80.71
2023-04-16T07:24:58.508Z,80.52
2023-04-16T07:27:25.805Z,81.32
2023-04-16T07:29:52.801Z,80.84
2023-04-16T07:32:20.313Z,80.76
2023-04-16T07:34:47.490Z,81.64
2023-04-16T07:37:14.589Z,81.58
2023-04-16T07:39:45.348Z,81.43
2023-04-16T07:42:13.894Z,81.16
2023-04-16T07:44:40.892Z,81.43
2023-04-16T07:47:08.990Z,81.64
2023-04-16T07:49:35.814Z,81.43
2023-04-16T07:52:02.611Z,81.66
2023-04-16T07:54:29.310Z,81.67
2023-04-16T07:56:56.203Z,81.50
2023-04-16T07:59:24.244Z,81.62
2023-04-16T08:01:53.296Z,81.19
2023-04-16T08:04:25.034Z,81.78
2023-04-16T08:06:52.790Z,80.89
2023-04-16T08:09:21.695Z,81.33
2023-04-16T08:11:49.968Z,80.98
2023-04-16T08:14:17.750Z,81.76
2023-04-16T08:16:44.463Z,81.43
2023-04-16T08:19:11.966Z,81.03
2023-04-16T08:21:38.906Z,81.71
2023-04-16T08:24:05.864Z,81.42
2023-04-16T08:26:32.577Z,81.05
2023-04-16T08:28:59.302Z,79.43
2023-04-16T08:31:26.149Z,79.82
2023-04-16T08:33:52.866Z,78.40
2023-04-16T08:36:19.467Z,78.47
2023-04-16T08:38:46.153Z,78.48
2023-04-16T08:41:14.140Z,78.30
2023-04-16T08:43:45.183Z,77.27
2023-04-16T08:46:13.158Z,77.63
2023-04-16T08:48:47.696Z,76.67
2023-04-16T08:51:19.030Z,75.95
2023-04-16T08:54:02.829Z,76.44
2023-04-16T08:56:32.064Z,76.50
2023-04-16T08:59:02.028Z,76.11
2023-04-16T09:01:29.571Z,75.91
2023-04-16T09:03:58.808Z,75.93
2023-04-16T09:06:26.415Z,75.49
2023-04-16T09:08:54.024Z,74.85
2023-04-16T09:11:21.919Z,74.31
2023-04-16T09:13:48.490Z,74.83
2023-04-16T09:16:15.545Z,74.38
2023-04-16T09:18:44.313Z,74.18
2023-04-16T09:21:11.972Z,75.01
2023-04-16T09:23:38.966Z,74.66
2023-04-16T09:26:06.240Z,74.54
2023-04-16T09:28:45.377Z,74.45
2023-04-16T09:31:17.596Z,74.42
2023-04-16T09:34:00.977Z,73.25
2023-04-16T09:36:28.200Z,72.26
2023-04-16T09:38:57.599Z,71.62
2023-04-16T09:41:29.714Z,73.04
2023-04-16T09:44:01.914Z,73.02
2023-04-16T09:46:36.663Z,72.76
2023-04-16T09:49:12.012Z,72.62
2023-04-16T09:51:44.136Z,71.72
2023-04-16T09:54:13.397Z,71.84
2023-04-16T09:56:46.214Z,71.42
2023-04-16T09:59:20.211Z,70.41
2023-04-16T10:01:47.262Z,70.11
2023-04-16T10:04:14.171Z,71.46
2023-04-16T10:06:42.828Z,70.25
2023-04-16T10:09:11.971Z,70.44
2023-04-16T10:11:46.928Z,69.23
2023-04-16T10:14:13.713Z,69.94
2023-04-16T10:16:44.637Z,68.88
2023-04-16T10:19:13.507Z,69.52
2023-04-16T10:21:48.207Z,70.11
2023-04-16T10:24:17.480Z,68.08
2023-04-16T10:26:44.796Z,67.18
2023-04-16T10:29:14.587Z,66.92
2023-04-16T10:31:44.934Z,65.82
2023-04-16T10:34:16.011Z,64.37
2023-04-16T10:36:50.722Z,64.71
2023-04-16T10:39:23.805Z,64.43
2023-04-16T10:42:13.631Z,63.34
2023-04-16T10:44:45.440Z,63.30
2023-04-16T10:47:14.238Z,62.33
2023-04-16T10:49:44.116Z,62.62
2023-04-16T10:52:18.668Z,61.42
2023-04-16T10:54:47.834Z,62.68
2023-04-16T10:57:18.358Z,62.99
2023-04-16T10:59:46.100Z,62.76
2023-04-16T11:02:18.945Z,62.49
2023-04-16T11:04:47.530Z,62.77
2023-04-16T11:07:18.907Z,62.26
2023-04-16T11:09:54.561Z,62.92
2023-04-16T11:12:27.899Z,61.85
2023-04-16T11:15:02.711Z,61.11
2023-04-16T11:17:46.592Z,60.03
2023-04-16T11:20:28.445Z,60.43
2023-04-16T11:22:57.423Z,62.99
2023-04-16T11:25:34.126Z,61.96
2023-04-16T11:28:02.638Z,62.09
2023-04-16T11:30:37.001Z,59.44
2023-04-16T11:33:04.837Z,59.61
2023-04-16T11:35:31.644Z,58.40
2023-04-16T11:37:58.808Z,57.97
2023-04-16T11:40:30.072Z,58.86
2023-04-16T11:43:01.252Z,57.64
2023-04-16T11:45:28.167Z,59.17
2023-04-16T11:47:57.362Z,58.90
2023-04-16T11:50:29.793Z,58.14
2023-04-16T11:53:03.309Z,57.27
2023-04-16T11:55:29.978Z,57.51
2023-04-16T11:57:56.660Z,57.45
2023-04-16T12:00:25.018Z,59.31
2023-04-16T12:02:54.167Z,60.19
2023-04-16T12:05:34.054Z,61.23
2023-04-16T12:08:13.621Z,61.68
2023-04-16T12:10:56.036Z,62.46
2023-04-16T12:13:22.860Z,61.33
2023-04-16T12:15:51.528Z,63.25
2023-04-16T12:18:20.333Z,62.36
2023-04-16T12:20:47.168Z,60.90
2023-04-16T12:23:28.064Z,58.45
2023-04-16T12:25:56.021Z,58.04
2023-04-16T12:28:30.176Z,57.52
2023-04-16T12:30:57.127Z,58.05
2023-04-16T12:33:23.894Z,59.55
2023-04-16T12:35:51.076Z,60.32
2023-04-16T12:38:17.685Z,59.93
2023-04-16T12:40:47.342Z,60.56
2023-04-16T12:43:14.034Z,60.24
2023-04-16T12:45:44.155Z,60.64
2023-04-16T12:48:13.353Z,60.38
2023-04-16T12:50:40.249Z,61.69
2023-04-16T12:53:07.174Z,61.57
2023-04-16T12:55:33.826Z,61.59
2023-04-16T12:58:00.448Z,61.09
2023-04-16T13:00:27.042Z,61.61
2023-04-16T13:02:56.897Z,58.55
2023-04-16T13:05:23.670Z,59.33
2023-04-16T13:07:50.362Z,59.06
2023-04-16T13:10:17.391Z,54.04
2023-04-16T13:12:49.372Z,56.71
2023-04-16T13:15:16.163Z,56.33
2023-04-16T13:17:47.472Z,54.66
2023-04-16T13:20:14.122Z,55.31
2023-04-16T13:22:44.302Z,54.74
2023-04-16T13:25:13.544Z,52.83
2023-04-16T13:27:40.407Z,52.22
2023-04-16T13:30:07.917Z,54.34
2023-04-16T13:32:34.614Z,53.88
2023-04-16T13:35:01.397Z,55.49
2023-04-16T13:37:29.070Z,55.46
2023-04-16T13:39:56.631Z,56.99
2023-04-16T13:42:23.746Z,56.80
2023-04-16T13:44:53.241Z,56.49
2023-04-16T13:47:22.459Z,56.87
2023-04-16T13:49:49.146Z,58.26
2023-04-16T13:52:20.032Z,57.97
2023-04-16T13:54:47.809Z,57.83
2023-04-16T13:57:15.727Z,58.34
2023-04-16T13:59:48.323Z,57.34
2023-04-16T14:02:16.564Z,56.09
2023-04-16T14:04:44.841Z,55.85
2023-04-16T14:07:14.292Z,55.36
2023-04-16T14:09:45.423Z,55.50
2023-04-16T14:12:14.928Z,54.24
2023-04-16T14:14:44.140Z,53.89
2023-04-16T14:17:14.116Z,53.61
2023-04-16T14:19:44.807Z,53.52
2023-04-16T14:22:13.844Z,55.55
2023-04-16T14:24:49.297Z,55.29
2023-04-16T14:27:17.033Z,55.27
2023-04-16T14:29:46.429Z,56.35
2023-04-16T14:32:14.831Z,56.62
2023-04-16T14:34:44.246Z,55.85
2023-04-16T14:37:13.533Z,57.38
2023-04-16T14:39:40.291Z,57.24
2023-04-16T14:42:07.820Z,56.62
2023-04-16T14:44:34.428Z,55.84
2023-04-16T14:47:01.246Z,55.14
2023-04-16T14:49:27.983Z,55.56
2023-04-16T14:51:54.923Z,54.30
2023-04-16T14:54:23.429Z,54.75
2023-04-16T14:56:50.662Z,54.86
2023-04-16T14:59:17.366Z,54.57
2023-04-16T15:01:45.450Z,55.50
2023-04-16T15:04:17.257Z,54.87
2023-04-16T15:06:46.534Z,56.60
2023-04-16T15:09:13.990Z,55.99
2023-04-16T15:11:42.939Z,57.02
2023-04-16T15:14:11.270Z,56.28
2023-04-16T15:16:38.687Z,57.81
2023-04-16T15:19:05.537Z,56.87
2023-04-16T15:21:34.547Z,58.42
2023-04-16T15:24:01.474Z,58.13
2023-04-16T15:26:28.180Z,58.08
2023-04-16T15:28:54.969Z,57.33
2023-04-16T15:31:22.278Z,56.51
2023-04-16T15:33:50.089Z,57.98
2023-04-16T15:36:17.993Z,58.15
2023-04-16T15:38:45.506Z,57.10
2023-04-16T15:41:14.283Z,56.53
2023-04-16T15:43:43.204Z,57.03
2023-04-16T15:46:10.053Z,56.63
2023-04-16T15:48:38.556Z,56.89
2023-04-16T15:51:05.606Z,57.52
2023-04-16T15:53:32.392Z,58.33
2023-04-16T15:55:59.893Z,58.37
2023-04-16T15:58:29.636Z,58.56
2023-04-16T16:00:56.217Z,58.43
2023-04-16T16:03:23.049Z,58.84
2023-04-16T16:05:51.208Z,59.20
2023-04-16T16:08:18.521Z,57.82
2023-04-16T16:10:45.464Z,56.32
2023-04-16T16:13:16.074Z,56.33
2023-04-16T16:15:45.216Z,56.65
2023-04-16T16:18:16.102Z,55.72
2023-04-16T16:20:48.785Z,55.33
2023-04-16T16:23:15.657Z,55.98
2023-04-16T16:25:44.594Z,55.66
2023-04-16T16:28:14.091Z,55.14
2023-04-16T16:30:45.060Z,55.25
2023-04-16T16:33:17.647Z,55.28
2023-04-16T16:35:46.072Z,54.75
2023-04-16T16:38:16.024Z,54.91
2023-04-16T16:40:46.374Z,55.51
2023-04-16T16:43:17.015Z,55.89
2023-04-16T16:45:48.905Z,56.68
2023-04-16T16:48:15.648Z,57.42
2023-04-16T16:50:45.524Z,57.61
2023-04-16T16:53:27.380Z,58.51
2023-04-16T16:55:57.841Z,59.14
2023-04-16T16:58:24.563Z,59.49
2023-04-16T17:00:51.183Z,60.26
2023-04-16T17:03:18.127Z,60.79
2023-04-16T17:05:45.662Z,61.25
2023-04-16T17:08:16.245Z,61.36
2023-04-16T17:10:46.419Z,61.85
2023-04-16T17:13:19.616Z,62.08
2023-04-16T17:15:47.154Z,62.77
2023-04-16T17:18:14.706Z,62.99
2023-04-16T17:20:43.851Z,63.07
2023-04-16T17:23:13.288Z,63.58
2023-04-16T17:25:40.096Z,63.42
2023-04-16T17:28:07.981Z,63.42
2023-04-16T17:30:34.536Z,63.81
2023-04-16T17:33:03.067Z,64.09
2023-04-16T17:35:30.594Z,64.21
2023-04-16T17:37:57.496Z,64.67
2023-04-16T17:40:24.099Z,65.24
2023-04-16T17:42:51.396Z,65.39
2023-04-16T17:45:18.133Z,65.24
2023-04-16T17:47:44.882Z,65.44
2023-04-16T17:50:14.279Z,65.46
2023-04-16T17:52:42.900Z,66.00
2023-04-16T17:55:13.649Z,65.76
2023-04-16T17:57:42.843Z,66.53
2023-04-16T18:00:12.986Z,66.81
2023-04-16T18:02:43.479Z,66.86
2023-04-16T18:05:16.340Z,67.53
2023-04-16T18:07:46.503Z,67.39
2023-04-16T18:10:13.493Z,67.39
2023-04-16T18:12:40.234Z,68.12
2023-04-16T18:15:07.590Z,68.06
2023-04-16T18:17:34.344Z,68.55
2023-04-16T18:20:02.093Z,68.61
2023-04-16T18:22:29.128Z,69.29
2023-04-16T18:24:55.918Z,68.54
2023-04-16T18:27:23.226Z,69.05
2023-04-16T18:29:51.269Z,69.25
2023-04-16T18:32:20.399Z,69.55
2023-04-16T18:34:47.042Z,69.78
2023-04-16T18:37:19.808Z,70.30
2023-04-16T18:39:46.724Z,70.47
2023-04-16T18:42:16.105Z,70.44
2023-04-16T18:44:54.139Z,70.47
2023-04-16T18:47:20.933Z,70.70
2023-04-16T18:49:47.925Z,70.77
2023-04-16T18:52:14.699Z,71.04
2023-04-16T18:54:43.560Z,71.44
2023-04-16T18:57:10.396Z,71.51
2023-04-16T18:59:37.423Z,71.29
2023-04-16T19:02:04.366Z,71.69
2023-04-16T19:04:31.623Z,72.04
2023-04-16T19:06:58.339Z,72.26
2023-04-16T19:09:26.543Z,72.73
2023-04-16T19:11:53.174Z,72.54
2023-04-16T19:14:20.128Z,73.00
2023-04-16T19:16:47.509Z,72.87
2023-04-16T19:19:14.347Z,73.04
2023-04-16T19:21:43.367Z,73.07
2023-04-16T19:24:10.039Z,73.37
2023-04-16T19:26:36.714Z,73.20
2023-04-16T19:29:03.594Z,73.37
2023-04-16T19:31:30.542Z,73.81
2023-04-16T19:33:57.196Z,74.35
2023-04-16T19:36:23.841Z,74.05
2023-04-16T19:38:50.665Z,74.48
2023-04-16T19:41:17.466Z,74.74
2023-04-16T19:43:45.392Z,74.87
2023-04-16T19:46:15.543Z,74.77
2023-04-16T19:48:45.189Z,74.64
2023-04-16T19:51:15.048Z,74.86
2023-04-16T19:53:44.625Z,74.82
2023-04-16T19:56:12.302Z,74.77
2023-04-16T19:58:39.361Z,74.95
2023-04-16T20:01:10.314Z,74.71
2023-04-16T20:03:40.156Z,75.03
2023-04-16T20:06:08.009Z,75.47
2023-04-16T20:08:34.735Z,75.56
2023-04-16T20:11:01.518Z,76.03
2023-04-16T20:13:28.214Z,76.19
2023-04-16T20:15:54.984Z,76.54
2023-04-16T20:18:21.640Z,76.67
2023-04-16T20:20:48.760Z,76.49
2023-04-16T20:23:15.605Z,76.27
2023-04-16T20:25:46.409Z,76.91
2023-04-16T20:28:21.137Z,76.55
2023-04-16T20:30:47.826Z,76.82
2023-04-16T20:33:14.530Z,76.83
2023-04-16T20:35:43.610Z,76.55
2023-04-16T20:38:10.234Z,77.02
2023-04-16T20:40:38.797Z,77.14
2023-04-16T20:43:10.043Z,77.41
2023-04-16T20:45:42.508Z,77.35
2023-04-16T20:48:13.385Z,77.26
2023-04-16T20:50:40.115Z,77.42
2023-04-16T20:53:06.771Z,77.53
2023-04-16T20:55:33.332Z,77.88
2023-04-16T20:57:59.939Z,77.70
2023-04-16T21:00:27.253Z,78.45
2023-04-16T21:02:56.706Z,78.05
2023-04-16T21:05:23.890Z,77.95
2023-04-16T21:07:50.537Z,78.17
2023-04-16T21:10:20.321Z,78.28
2023-04-16T21:12:47.127Z,78.30
2023-04-16T21:15:13.805Z,78.21
2023-04-16T21:17:41.230Z,78.57
2023-04-16T21:20:13.641Z,78.29
2023-04-16T21:22:40.370Z,78.26
2023-04-16T21:25:07.814Z,78.73
2023-04-16T21:27:34.478Z,78.73
2023-04-16T21:30:01.212Z,78.96
2023-04-16T21:32:27.947Z,78.90
2023-04-16T21:34:54.724Z,78.79
2023-04-16T21:37:21.333Z,78.91
2023-04-16T21:39:49.032Z,79.07
2023-04-16T21:42:15.706Z,78.73
2023-04-16T21:44:45.352Z,78.56
2023-04-16T21:47:15.836Z,78.98
2023-04-16T21:49:45.796Z,79.08
2023-04-16T21:52:18.312Z,78.91
2023-04-16T21:54:45.477Z,78.91
2023-04-16T21:57:16.106Z,79.12
2023-04-16T21:59:45.958Z,79.12
2023-04-16T22:02:15.587Z,79.35
2023-04-16T22:04:45.753Z,79.12
2023-04-16T22:07:16.904Z,79.57
2023-04-16T22:09:44.488Z,79.50
2023-04-16T22:12:13.546Z,79.48
2023-04-16T22:14:46.162Z,79.62
2023-04-16T22:17:17.213Z,79.54
2023-04-16T22:19:44.988Z,79.69
2023-04-16T22:22:13.665Z,79.74
2023-04-16T22:24:40.635Z,79.99
2023-04-16T22:27:07.670Z,79.64
2023-04-16T22:29:34.399Z,79.37
2023-04-16T22:32:02.008Z,79.52
2023-04-16T22:34:28.740Z,79.87
2023-04-16T22:36:56.311Z,79.98
2023-04-16T22:39:23.145Z,79.51
2023-04-16T22:41:49.719Z,80.01
2023-04-16T22:44:16.926Z,80.27
2023-04-16T22:46:44.253Z,79.65
2023-04-16T22:49:13.498Z,79.82
2023-04-16T22:51:40.277Z,80.02
2023-04-16T22:54:07.901Z,80.06
2023-04-16T22:56:34.560Z,79.93
2023-04-16T22:59:01.376Z,79.85
2023-04-16T23:01:28.042Z,80.30
2023-04-16T23:03:54.817Z,80.21
2023-04-16T23:06:22.162Z,80.20
2023-04-16T23:08:49.869Z,80.39
2023-04-16T23:11:16.521Z,80.47
2023-04-16T23:13:44.309Z,80.83
2023-04-16T23:16:14.011Z,80.72
2023-04-16T23:18:43.093Z,80.42
2023-04-16T23:21:09.813Z,80.78
2023-04-16T23:23:36.758Z,80.93
2023-04-16T23:26:03.616Z,80.94
2023-04-16T23:28:30.398Z,80.86
2023-04-16T23:30:57.116Z,80.95
2023-04-16T23:33:23.882Z,81.07
2023-04-16T23:35:50.756Z,81.17
2023-04-16T23:38:18.638Z,81.22
2023-04-16T23:40:45.370Z,81.33
2023-04-16T23:43:15.710Z,81.56
2023-04-16T23:45:45.495Z,81.45
2023-04-16T23:48:13.968Z,81.63
2023-04-16T23:50:40.678Z,81.42
2023-04-16T23:53:07.998Z,81.46
2023-04-16T23:55:34.714Z,81.89
2023-04-16T23:58:01.369Z,81.72
